createdAt,value
2018-09-09T00:00:55.422Z,729.00
2018-09-09T00:01:53.937Z,729.20
2018-09-09T00:02:53.993Z,741.10
2018-09-09T00:03:54.546Z,735.80
2018-09-09T00:04:54.093Z,724.10
2018-09-09T00:05:54.077Z,725.70
2018-09-09T00:06:54.139Z,722.40
2018-09-09T00:07:54.409Z,734.20
2018-09-09T00:08:54.775Z,724.80
2018-09-09T00:09:54.275Z,729.40
2018-09-09T00:10:54.304Z,729.80
2018-09-09T00:11:54.331Z,711.80
2018-09-09T00:12:55.910Z,704.80
2018-09-09T00:13:54.691Z,710.60
2018-09-09T00:14:54.472Z,742.60
2018-09-09T00:15:54.516Z,723.70
2018-09-09T00:16:54.560Z,728.30
2018-09-09T00:17:54.597Z,721.90
2018-09-09T00:18:54.647Z,680.60
2018-09-09T00:19:54.989Z,712.30
2018-09-09T00:20:54.751Z,781.60
2018-09-09T00:21:54.784Z,724.80
2018-09-09T00:22:54.799Z,725.50
2018-09-09T00:23:54.846Z,686.10
2018-09-09T00:24:54.900Z,722.40
2018-09-09T00:25:54.981Z,702.10
2018-09-09T00:26:55.229Z,730.40
2018-09-09T00:27:55.027Z,719.10
2018-09-09T00:28:55.065Z,728.50
2018-09-09T00:29:55.126Z,712.40
2018-09-09T00:30:55.164Z,717.20
2018-09-09T00:31:55.187Z,732.30
2018-09-09T00:32:55.515Z,748.50
2018-09-09T00:33:55.276Z,743.40
2018-09-09T00:34:55.319Z,726.30
2018-09-09T00:35:55.355Z,743.00
2018-09-09T00:36:55.422Z,736.10
2018-09-09T00:37:55.480Z,729.30
2018-09-09T00:38:55.805Z,725.80
2018-09-09T00:39:55.532Z,721.70
2018-09-09T00:40:55.595Z,721.00
2018-09-09T00:41:55.616Z,721.00
2018-09-09T00:42:55.670Z,739.40
2018-09-09T00:43:55.758Z,729.90
2018-09-09T00:44:55.754Z,722.20
2018-09-09T00:45:55.839Z,748.40
2018-09-09T00:46:55.821Z,734.20
2018-09-09T00:47:55.895Z,734.10
2018-09-09T00:48:55.925Z,721.80
2018-09-09T00:49:56.236Z,729.40
2018-09-09T00:50:55.984Z,712.20
2018-09-09T00:51:56.052Z,734.20
2018-09-09T00:52:56.082Z,736.10
2018-09-09T00:53:56.126Z,736.70
2018-09-09T00:54:56.208Z,712.60
2018-09-09T00:55:56.217Z,723.30
2018-09-09T00:56:56.276Z,716.30
2018-09-09T00:57:56.836Z,713.70
2018-09-09T00:58:56.360Z,716.60
2018-09-09T00:59:56.392Z,714.60
2018-09-09T01:00:56.667Z,707.40
2018-09-09T01:01:56.489Z,733.70
2018-09-09T01:02:56.525Z,700.90
2018-09-09T01:03:56.546Z,716.80
2018-09-09T01:04:56.608Z,720.20
2018-09-09T01:05:56.642Z,701.50
2018-09-09T01:06:56.683Z,694.30
2018-09-09T01:07:56.740Z,700.70
2018-09-09T01:08:56.806Z,676.50
2018-09-09T01:09:56.812Z,696.00
2018-09-09T01:10:56.894Z,694.20
2018-09-09T01:11:56.883Z,682.10
2018-09-09T01:12:57.175Z,664.10
2018-09-09T01:13:56.996Z,678.00
2018-09-09T01:14:57.075Z,686.20
2018-09-09T01:15:57.081Z,675.80
2018-09-09T01:16:57.099Z,673.40
2018-09-09T01:17:57.123Z,651.40
2018-09-09T01:18:57.457Z,660.40
2018-09-09T01:19:57.204Z,653.80
2018-09-09T01:20:57.311Z,668.40
2018-09-09T01:21:57.313Z,659.20
2018-09-09T01:22:57.355Z,671.10
2018-09-09T01:23:57.391Z,663.60
2018-09-09T01:24:57.692Z,684.70
2018-09-09T01:25:57.488Z,700.60
2018-09-09T01:26:57.514Z,659.60
2018-09-09T01:27:57.574Z,652.60
2018-09-09T01:28:57.642Z,649.70
2018-09-09T01:29:57.645Z,659.70
2018-09-09T01:30:57.701Z,653.10
2018-09-09T01:31:57.733Z,647.30
2018-09-09T01:32:57.786Z,659.40
2018-09-09T01:33:57.829Z,660.70
2018-09-09T01:34:57.851Z,653.70
2018-09-09T01:35:58.250Z,661.50
2018-09-09T01:36:57.922Z,661.00
2018-09-09T01:37:58.032Z,643.80
2018-09-09T01:38:58.026Z,630.20
2018-09-09T01:39:58.072Z,661.70
2018-09-09T01:40:58.089Z,630.50
2018-09-09T01:41:58.190Z,645.30
2018-09-09T01:42:58.191Z,645.50
2018-09-09T01:43:58.259Z,631.00
2018-09-09T01:44:58.280Z,641.10
2018-09-09T01:45:58.617Z,646.50
2018-09-09T01:46:58.367Z,652.50
2018-09-09T01:47:58.435Z,639.20
2018-09-09T01:48:58.482Z,622.80
2018-09-09T01:49:58.501Z,644.40
2018-09-09T01:50:58.547Z,646.00
2018-09-09T01:51:58.588Z,638.60
2018-09-09T01:52:58.621Z,618.40
2018-09-09T01:53:58.701Z,640.10
2018-09-09T01:54:58.706Z,639.70
2018-09-09T01:55:58.995Z,655.00
2018-09-09T01:56:58.777Z,637.60
2018-09-09T01:57:58.827Z,614.30
2018-09-09T01:58:58.907Z,661.60
2018-09-09T01:59:58.918Z,622.70
2018-09-09T02:00:58.980Z,639.70
2018-09-09T02:01:59.050Z,634.70
2018-09-09T02:02:59.022Z,644.20
2018-09-09T02:03:59.069Z,621.00
2018-09-09T02:04:59.146Z,613.50
2018-09-09T02:05:59.165Z,631.00
2018-09-09T02:06:59.215Z,616.30
2018-09-09T02:07:59.272Z,635.00
2018-09-09T02:08:59.327Z,644.00
2018-09-09T02:09:59.305Z,623.40
2018-09-09T02:10:59.378Z,623.70
2018-09-09T02:11:59.433Z,628.30
2018-09-09T02:12:59.453Z,616.20
2018-09-09T02:13:59.525Z,691.60
2018-09-09T02:14:59.796Z,624.30
2018-09-09T02:15:59.578Z,643.20
2018-09-09T02:16:59.622Z,641.80
2018-09-09T02:17:59.701Z,677.30
2018-09-09T02:18:59.727Z,614.00
2018-09-09T02:19:59.757Z,608.00
2018-09-09T02:21:00.036Z,662.40
2018-09-09T02:21:59.821Z,618.20
2018-09-09T02:22:59.864Z,607.30
2018-09-09T02:23:59.902Z,614.60
2018-09-09T02:24:59.955Z,644.90
2018-09-09T02:26:00.020Z,627.90
2018-09-09T02:27:00.045Z,599.20
2018-09-09T02:28:00.074Z,591.60
2018-09-09T02:29:00.197Z,608.40
2018-09-09T02:30:00.223Z,596.40
2018-09-09T02:31:00.214Z,618.70
2018-09-09T02:32:00.502Z,599.00
2018-09-09T02:33:00.311Z,615.70
2018-09-09T02:34:00.365Z,613.30
2018-09-09T02:35:00.409Z,620.70
2018-09-09T02:36:00.400Z,605.60
2018-09-09T02:37:00.457Z,611.00
2018-09-09T02:38:00.502Z,610.80
2018-09-09T02:39:00.558Z,655.70
2018-09-09T02:40:00.605Z,624.00
2018-09-09T02:41:00.650Z,626.30
2018-09-09T02:42:00.919Z,622.70
2018-09-09T02:43:00.747Z,626.10
2018-09-09T02:44:00.760Z,638.10
2018-09-09T02:45:00.801Z,628.70
2018-09-09T02:46:00.825Z,634.80
2018-09-09T02:47:00.915Z,633.50
2018-09-09T02:48:00.926Z,640.40
2018-09-09T02:49:01.215Z,626.20
2018-09-09T02:50:01.012Z,640.10
2018-09-09T02:51:01.053Z,640.70
2018-09-09T02:52:01.094Z,651.10
2018-09-09T02:53:01.165Z,652.80
2018-09-09T02:54:01.211Z,656.60
2018-09-09T02:55:01.543Z,655.40
2018-09-09T02:56:01.262Z,675.80
2018-09-09T02:57:01.272Z,680.60
2018-09-09T02:58:01.355Z,662.50
2018-09-09T02:59:01.369Z,696.70
2018-09-09T03:00:01.461Z,676.50
2018-09-09T03:01:01.726Z,686.40
2018-09-09T03:02:01.506Z,716.60
2018-09-09T03:03:01.532Z,701.80
2018-09-09T03:04:01.582Z,691.20
2018-09-09T03:05:01.620Z,688.00
2018-09-09T03:06:01.662Z,687.00
2018-09-09T03:07:01.729Z,706.50
2018-09-09T03:08:01.767Z,686.10
2018-09-09T03:09:01.792Z,696.00
2018-09-09T03:10:01.839Z,713.30
2018-09-09T03:11:01.881Z,710.20
2018-09-09T03:12:02.148Z,706.30
2018-09-09T03:13:02.258Z,706.30
2018-09-09T03:14:02.009Z,700.50
2018-09-09T03:15:02.050Z,700.00
2018-09-09T03:16:02.117Z,724.90
2018-09-09T03:17:02.122Z,737.70
2018-09-09T03:18:02.477Z,729.60
2018-09-09T03:19:02.469Z,704.50
2018-09-09T03:20:02.258Z,716.00
2018-09-09T03:21:02.289Z,726.40
2018-09-09T03:22:02.311Z,729.00
2018-09-09T03:23:02.375Z,743.60
2018-09-09T03:24:02.642Z,724.90
2018-09-09T03:25:02.447Z,753.10
2018-09-09T03:26:02.487Z,727.40
2018-09-09T03:27:02.526Z,738.60
2018-09-09T03:28:02.572Z,760.60
2018-09-09T03:29:02.612Z,767.20
2018-09-09T03:30:02.670Z,775.90
2018-09-09T03:31:02.698Z,764.50
2018-09-09T03:32:02.779Z,758.60
2018-09-09T03:33:02.807Z,757.70
2018-09-09T03:34:03.090Z,761.00
2018-09-09T03:35:02.871Z,760.10
2018-09-09T03:36:02.916Z,773.40
2018-09-09T03:37:02.957Z,777.90
2018-09-09T03:38:03.044Z,770.00
2018-09-09T03:39:03.041Z,766.90
2018-09-09T03:40:03.069Z,774.90
2018-09-09T03:41:03.383Z,794.50
2018-09-09T03:42:03.180Z,791.20
2018-09-09T03:43:03.192Z,791.80
2018-09-09T03:44:03.247Z,804.80
2018-09-09T03:45:03.289Z,795.40
2018-09-09T03:46:03.330Z,788.60
2018-09-09T03:47:03.382Z,779.30
2018-09-09T03:48:03.630Z,779.00
2018-09-09T03:49:03.461Z,778.60
2018-09-09T03:50:03.505Z,779.80
2018-09-09T03:51:03.592Z,762.50
2018-09-09T03:52:03.823Z,772.20
2018-09-09T03:53:03.631Z,767.00
2018-09-09T03:54:03.674Z,775.50
2018-09-09T03:55:03.708Z,791.70
2018-09-09T03:56:03.740Z,788.50
2018-09-09T03:57:03.806Z,797.90
2018-09-09T03:58:03.849Z,791.70
2018-09-09T03:59:03.878Z,795.90
2018-09-09T04:00:03.909Z,771.80
2018-09-09T04:01:03.946Z,774.60
2018-09-09T04:02:04.253Z,757.40
2018-09-09T04:03:04.033Z,778.00
2018-09-09T04:04:04.085Z,794.50
2018-09-09T04:05:04.106Z,760.20
2018-09-09T04:06:04.198Z,770.60
2018-09-09T04:07:04.492Z,774.90
2018-09-09T04:08:04.275Z,754.50
2018-09-09T04:09:04.287Z,770.10
2018-09-09T04:10:04.351Z,759.90
2018-09-09T04:11:04.391Z,771.40
2018-09-09T04:12:04.420Z,768.20
2018-09-09T04:13:04.467Z,777.50
2018-09-09T04:14:04.501Z,738.40
2018-09-09T04:15:04.557Z,739.50
2018-09-09T04:16:04.561Z,737.60
2018-09-09T04:17:04.630Z,737.80
2018-09-09T04:18:04.957Z,736.70
2018-09-09T04:19:04.721Z,742.50
2018-09-09T04:20:04.774Z,730.80
2018-09-09T04:21:04.805Z,746.60
2018-09-09T04:22:04.829Z,741.00
2018-09-09T04:23:04.872Z,749.40
2018-09-09T04:24:05.160Z,751.70
2018-09-09T04:25:04.950Z,762.90
2018-09-09T04:26:05.014Z,768.40
2018-09-09T04:27:05.055Z,734.20
2018-09-09T04:28:05.105Z,759.80
2018-09-09T04:29:05.137Z,751.90
2018-09-09T04:30:05.179Z,758.50
2018-09-09T04:31:05.208Z,761.90
2018-09-09T04:32:05.257Z,751.90
2018-09-09T04:33:05.299Z,734.90
2018-09-09T04:34:05.637Z,744.80
2018-09-09T04:35:05.384Z,753.00
2018-09-09T04:36:05.433Z,734.50
2018-09-09T04:37:05.445Z,737.20
2018-09-09T04:38:05.495Z,762.00
2018-09-09T04:39:05.539Z,743.40
2018-09-09T04:40:05.577Z,756.90
2018-09-09T04:41:05.624Z,755.30
2018-09-09T04:42:05.651Z,753.80
2018-09-09T04:43:05.713Z,763.00
2018-09-09T04:44:05.779Z,749.70
2018-09-09T04:45:06.074Z,758.50
2018-09-09T04:46:05.815Z,752.70
2018-09-09T04:47:05.863Z,759.40
2018-09-09T04:48:05.901Z,765.30
2018-09-09T04:49:05.971Z,768.20
2018-09-09T04:50:05.979Z,755.60
2018-09-09T04:51:06.038Z,757.90
2018-09-09T04:52:06.109Z,749.30
2018-09-09T04:53:06.104Z,748.10
2018-09-09T04:54:06.172Z,747.50
2018-09-09T04:55:06.173Z,744.30
2018-09-09T04:56:06.585Z,739.10
2018-09-09T04:57:06.295Z,745.00
2018-09-09T04:58:06.326Z,755.40
2018-09-09T04:59:06.387Z,746.90
2018-09-09T05:00:06.394Z,735.30
2018-09-09T05:01:06.469Z,740.70
2018-09-09T05:02:06.507Z,744.70
2018-09-09T05:03:06.525Z,744.50
2018-09-09T05:04:06.592Z,744.80
2018-09-09T05:05:06.605Z,744.40
2018-09-09T05:06:06.654Z,754.50
2018-09-09T05:07:06.695Z,738.60
2018-09-09T05:08:06.989Z,749.40
2018-09-09T05:09:06.802Z,746.70
2018-09-09T05:10:06.819Z,733.00
2018-09-09T05:11:06.870Z,731.60
2018-09-09T05:12:06.898Z,734.00
2018-09-09T05:13:06.932Z,726.40
2018-09-09T05:14:07.002Z,731.80
2018-09-09T05:15:07.345Z,704.00
2018-09-09T05:16:07.083Z,724.50
2018-09-09T05:17:07.124Z,705.50
2018-09-09T05:18:07.152Z,735.90
2018-09-09T05:19:07.202Z,717.30
2018-09-09T05:20:07.496Z,712.30
2018-09-09T05:21:07.280Z,710.80
2018-09-09T05:22:07.319Z,707.70
2018-09-09T05:23:07.362Z,692.90
2018-09-09T05:24:07.402Z,697.60
2018-09-09T05:25:07.462Z,698.30
2018-09-09T05:26:07.526Z,696.90
2018-09-09T05:27:07.528Z,692.20
2018-09-09T05:28:07.563Z,688.20
2018-09-09T05:29:07.616Z,690.80
2018-09-09T05:30:07.891Z,715.60
2018-09-09T05:31:07.784Z,713.80
2018-09-09T05:32:07.737Z,703.50
2018-09-09T05:33:07.819Z,702.60
2018-09-09T05:34:07.822Z,692.30
2018-09-09T05:35:07.876Z,685.70
2018-09-09T05:36:07.907Z,698.00
2018-09-09T05:37:08.259Z,718.80
2018-09-09T05:38:07.992Z,706.60
2018-09-09T05:39:08.074Z,706.00
2018-09-09T05:40:08.058Z,694.70
2018-09-09T05:41:08.090Z,703.70
2018-09-09T05:42:08.191Z,694.90
2018-09-09T05:43:08.194Z,690.90
2018-09-09T05:44:08.232Z,700.00
2018-09-09T05:45:08.266Z,683.00
2018-09-09T05:46:08.316Z,701.00
2018-09-09T05:47:08.384Z,683.80
2018-09-09T05:48:08.683Z,717.60
2018-09-09T05:49:08.465Z,695.20
2018-09-09T05:50:08.516Z,698.00
2018-09-09T05:51:08.504Z,676.30
2018-09-09T05:52:08.564Z,702.90
2018-09-09T05:53:08.616Z,702.30
2018-09-09T05:54:08.678Z,711.80
2018-09-09T05:55:08.739Z,723.50
2018-09-09T05:56:08.720Z,724.00
2018-09-09T05:57:08.769Z,735.10
2018-09-09T05:58:09.111Z,728.00
2018-09-09T05:59:09.203Z,736.10
2018-09-09T06:00:08.897Z,723.00
2018-09-09T06:01:08.997Z,720.20
2018-09-09T06:02:08.979Z,729.40
2018-09-09T06:03:09.015Z,713.60
2018-09-09T06:04:09.069Z,738.70
2018-09-09T06:05:09.106Z,729.20
2018-09-09T06:06:09.136Z,717.40
2018-09-09T06:07:09.185Z,723.00
2018-09-09T06:08:09.228Z,717.60
2018-09-09T06:09:09.506Z,715.10
2018-09-09T06:10:09.316Z,712.60
2018-09-09T06:11:09.321Z,718.90
2018-09-09T06:12:09.409Z,700.80
2018-09-09T06:13:09.435Z,687.40
2018-09-09T06:14:09.471Z,711.60
2018-09-09T06:15:09.755Z,730.40
2018-09-09T06:16:09.590Z,720.10
2018-09-09T06:17:09.586Z,731.00
2018-09-09T06:18:09.688Z,729.90
2018-09-09T06:19:09.700Z,733.70
2018-09-09T06:20:09.729Z,702.70
2018-09-09T06:21:10.050Z,712.80
2018-09-09T06:22:09.787Z,691.40
2018-09-09T06:23:09.824Z,697.10
2018-09-09T06:24:09.880Z,700.30
2018-09-09T06:25:09.913Z,703.90
2018-09-09T06:26:09.964Z,705.20
2018-09-09T06:27:10.003Z,715.50
2018-09-09T06:28:10.307Z,682.90
2018-09-09T06:29:10.107Z,702.60
2018-09-09T06:30:10.115Z,699.80
2018-09-09T06:31:10.159Z,684.00
2018-09-09T06:32:10.207Z,676.70
2018-09-09T06:33:10.538Z,703.30
2018-09-09T06:34:10.344Z,695.30
2018-09-09T06:35:10.312Z,705.90
2018-09-09T06:36:10.359Z,708.50
2018-09-09T06:37:10.462Z,656.20
2018-09-09T06:38:10.443Z,690.40
2018-09-09T06:39:10.802Z,700.50
2018-09-09T06:40:10.594Z,714.70
2018-09-09T06:41:10.580Z,716.80
2018-09-09T06:42:10.628Z,732.00
2018-09-09T06:43:10.653Z,725.30
2018-09-09T06:44:10.701Z,722.00
2018-09-09T06:45:11.036Z,729.90
2018-09-09T06:46:10.774Z,717.00
2018-09-09T06:47:10.835Z,700.10
2018-09-09T06:48:10.850Z,711.60
2018-09-09T06:49:10.913Z,710.00
2018-09-09T06:50:10.966Z,706.00
2018-09-09T06:51:11.366Z,707.60
2018-09-09T06:52:11.030Z,715.70
2018-09-09T06:53:11.064Z,694.40
2018-09-09T06:54:11.114Z,704.30
2018-09-09T06:55:11.138Z,716.90
2018-09-09T06:56:11.198Z,724.90
2018-09-09T06:57:11.214Z,685.70
2018-09-09T06:58:11.285Z,698.10
2018-09-09T06:59:11.333Z,706.50
2018-09-09T07:00:11.356Z,703.60
2018-09-09T07:01:11.403Z,707.40
2018-09-09T07:02:11.760Z,699.90
2018-09-09T07:03:11.731Z,690.70
2018-09-09T07:04:11.507Z,689.40
2018-09-09T07:05:11.552Z,723.10
2018-09-09T07:06:11.613Z,709.80
2018-09-09T07:07:11.646Z,712.50
2018-09-09T07:08:11.730Z,735.00
2018-09-09T07:09:11.958Z,724.70
2018-09-09T07:10:11.779Z,706.20
2018-09-09T07:11:11.879Z,716.60
2018-09-09T07:12:11.842Z,717.30
2018-09-09T07:13:11.893Z,708.60
2018-09-09T07:14:12.192Z,708.60
2018-09-09T07:15:11.963Z,717.80
2018-09-09T07:16:12.054Z,725.20
2018-09-09T07:17:12.084Z,724.20
2018-09-09T07:18:12.082Z,737.00
2018-09-09T07:19:12.190Z,753.50
2018-09-09T07:20:12.483Z,743.50
2018-09-09T07:21:12.223Z,750.10
2018-09-09T07:22:12.257Z,730.20
2018-09-09T07:23:12.344Z,729.90
2018-09-09T07:24:12.341Z,742.00
2018-09-09T07:25:12.396Z,748.90
2018-09-09T07:26:12.664Z,742.90
2018-09-09T07:27:12.456Z,720.30
2018-09-09T07:28:12.549Z,748.10
2018-09-09T07:29:12.540Z,730.40
2018-09-09T07:30:12.585Z,751.70
2018-09-09T07:31:12.756Z,755.00
2018-09-09T07:32:12.644Z,757.80
2018-09-09T07:33:12.950Z,768.60
2018-09-09T07:34:12.753Z,744.80
2018-09-09T07:35:12.780Z,774.00
2018-09-09T07:36:12.839Z,778.30
2018-09-09T07:37:12.938Z,779.40
2018-09-09T07:38:12.959Z,781.10
2018-09-09T07:39:13.261Z,769.20
2018-09-09T07:40:12.993Z,788.70
2018-09-09T07:41:13.028Z,794.40
2018-09-09T07:42:13.073Z,777.60
2018-09-09T07:43:13.126Z,791.30
2018-09-09T07:44:13.171Z,788.90
2018-09-09T07:45:13.471Z,801.20
2018-09-09T07:46:13.315Z,809.80
2018-09-09T07:47:13.297Z,805.60
2018-09-09T07:48:13.346Z,814.40
2018-09-09T07:49:13.413Z,780.60
2018-09-09T07:50:13.436Z,811.00
2018-09-09T07:51:13.494Z,799.20
2018-09-09T07:52:13.717Z,787.50
2018-09-09T07:53:13.530Z,788.60
2018-09-09T07:54:13.562Z,797.10
2018-09-09T07:55:13.607Z,794.00
2018-09-09T07:56:13.650Z,805.20
2018-09-09T07:57:13.959Z,791.80
2018-09-09T07:58:13.741Z,822.00
2018-09-09T07:59:13.780Z,812.50
2018-09-09T08:00:13.826Z,804.60
2018-09-09T08:01:13.868Z,827.20
2018-09-09T08:02:13.907Z,816.60
2018-09-09T08:03:14.202Z,833.30
2018-09-09T08:04:13.967Z,848.00
2018-09-09T08:05:14.029Z,825.50
2018-09-09T08:06:14.052Z,818.70
2018-09-09T08:07:14.088Z,832.40
2018-09-09T08:08:14.146Z,833.20
2018-09-09T08:09:14.444Z,802.90
2018-09-09T08:10:14.235Z,787.10
2018-09-09T08:11:14.277Z,769.00
2018-09-09T08:12:14.539Z,762.40
2018-09-09T08:13:14.340Z,745.00
2018-09-09T08:14:14.640Z,700.90
2018-09-09T08:15:14.489Z,702.50
2018-09-09T08:16:14.489Z,707.00
2018-09-09T08:17:14.517Z,668.00
2018-09-09T08:18:14.578Z,669.40
2018-09-09T08:19:14.592Z,683.50
2018-09-09T08:20:14.653Z,677.20
2018-09-09T08:21:14.679Z,679.80
2018-09-09T08:22:14.740Z,656.80
2018-09-09T08:23:14.783Z,641.50
2018-09-09T08:24:15.047Z,630.80
2018-09-09T08:25:14.850Z,626.50
2018-09-09T08:26:14.884Z,626.60
2018-09-09T08:27:14.949Z,647.30
2018-09-09T08:28:14.970Z,621.10
2018-09-09T08:29:15.014Z,664.70
2018-09-09T08:30:15.296Z,633.40
2018-09-09T08:31:15.094Z,628.50
2018-09-09T08:32:15.186Z,639.40
2018-09-09T08:33:15.184Z,597.80
2018-09-09T08:34:15.237Z,602.10
2018-09-09T08:35:15.255Z,614.10
2018-09-09T08:36:15.556Z,617.00
2018-09-09T08:37:15.327Z,604.20
2018-09-09T08:38:15.365Z,614.00
2018-09-09T08:39:15.466Z,594.50
2018-09-09T08:40:15.452Z,658.50
2018-09-09T08:41:15.501Z,611.50
2018-09-09T08:42:15.581Z,625.50
2018-09-09T08:43:15.884Z,599.10
2018-09-09T08:44:15.634Z,609.40
2018-09-09T08:45:15.661Z,642.30
2018-09-09T08:46:15.727Z,594.80
2018-09-09T08:47:15.755Z,585.40
2018-09-09T08:48:16.041Z,588.10
2018-09-09T08:49:15.846Z,591.20
2018-09-09T08:50:15.881Z,577.60
2018-09-09T08:51:15.930Z,571.80
2018-09-09T08:52:16.051Z,593.00
2018-09-09T08:53:15.991Z,664.20
2018-09-09T08:54:16.284Z,568.30
2018-09-09T08:55:16.094Z,562.80
2018-09-09T08:56:16.115Z,565.40
2018-09-09T08:57:16.176Z,559.20
2018-09-09T08:58:16.219Z,554.70
2018-09-09T08:59:16.230Z,603.00
2018-09-09T09:00:16.593Z,584.60
2018-09-09T09:01:16.316Z,576.70
2018-09-09T09:02:16.369Z,567.60
2018-09-09T09:03:16.406Z,577.90
2018-09-09T09:04:16.448Z,573.30
2018-09-09T09:05:16.485Z,580.70
2018-09-09T09:06:16.788Z,572.20
2018-09-09T09:07:16.612Z,567.70
2018-09-09T09:08:16.605Z,557.90
2018-09-09T09:09:16.687Z,550.90
2018-09-09T09:10:16.723Z,561.80
2018-09-09T09:11:16.754Z,552.30
2018-09-09T09:12:16.792Z,565.70
2018-09-09T09:13:17.088Z,558.80
2018-09-09T09:14:16.890Z,563.70
2018-09-09T09:15:16.901Z,553.10
2018-09-09T09:16:16.929Z,543.70
2018-09-09T09:17:17.010Z,548.30
2018-09-09T09:18:17.056Z,548.80
2018-09-09T09:19:17.307Z,545.90
2018-09-09T09:20:17.106Z,524.50
2018-09-09T09:21:17.165Z,529.40
2018-09-09T09:22:17.187Z,530.00
2018-09-09T09:23:17.231Z,518.70
2018-09-09T09:24:17.285Z,509.40
2018-09-09T09:25:17.562Z,526.00
2018-09-09T09:26:17.344Z,509.90
2018-09-09T09:27:17.432Z,517.10
2018-09-09T09:28:17.452Z,507.90
2018-09-09T09:29:17.531Z,500.80
2018-09-09T09:30:17.576Z,512.50
2018-09-09T09:31:17.900Z,544.10
2018-09-09T09:32:17.623Z,479.90
2018-09-09T09:33:17.678Z,504.70
2018-09-09T09:34:17.694Z,510.10
2018-09-09T09:35:17.751Z,508.30
2018-09-09T09:36:17.788Z,503.10
2018-09-09T09:37:17.828Z,486.40
2018-09-09T09:38:17.862Z,499.60
2018-09-09T09:39:17.929Z,495.10
2018-09-09T09:40:17.962Z,498.00
2018-09-09T09:41:17.980Z,503.70
2018-09-09T09:42:18.269Z,503.30
2018-09-09T09:43:18.079Z,483.10
2018-09-09T09:44:18.132Z,503.40
2018-09-09T09:45:18.157Z,503.70
2018-09-09T09:46:18.221Z,512.90
2018-09-09T09:47:18.289Z,505.20
2018-09-09T09:48:18.331Z,510.90
2018-09-09T09:49:18.641Z,509.20
2018-09-09T09:50:18.366Z,568.40
2018-09-09T09:51:18.440Z,530.30
2018-09-09T09:52:18.440Z,518.00
2018-09-09T09:53:18.592Z,529.00
2018-09-09T09:54:18.543Z,545.10
2018-09-09T09:55:18.839Z,527.80
2018-09-09T09:56:18.648Z,547.90
2018-09-09T09:57:18.688Z,531.80
2018-09-09T09:58:18.712Z,556.80
2018-09-09T09:59:18.765Z,555.20
2018-09-09T10:00:18.769Z,566.60
2018-09-09T10:01:19.139Z,570.60
2018-09-09T10:02:18.879Z,589.90
2018-09-09T10:03:18.920Z,556.10
2018-09-09T10:04:18.971Z,577.30
2018-09-09T10:05:19.014Z,573.00
2018-09-09T10:06:19.333Z,566.00
2018-09-09T10:07:19.081Z,546.90
2018-09-09T10:08:19.127Z,563.70
2018-09-09T10:09:19.180Z,576.20
2018-09-09T10:10:19.210Z,568.00
2018-09-09T10:11:19.247Z,569.60
2018-09-09T10:12:19.632Z,586.60
2018-09-09T10:13:19.393Z,571.80
2018-09-09T10:14:19.371Z,563.40
2018-09-09T10:15:19.444Z,579.80
2018-09-09T10:16:19.479Z,576.90
2018-09-09T10:17:19.501Z,565.10
2018-09-09T10:18:19.542Z,586.40
2018-09-09T10:19:19.603Z,608.30
2018-09-09T10:20:19.630Z,597.20
2018-09-09T10:21:19.675Z,626.40
2018-09-09T10:22:19.964Z,608.10
2018-09-09T10:23:19.786Z,603.80
2018-09-09T10:24:19.820Z,636.10
2018-09-09T10:25:19.875Z,599.50
2018-09-09T10:26:19.901Z,837.60
2018-09-09T10:27:19.941Z,670.10
2018-09-09T10:28:20.005Z,759.00
2018-09-09T10:29:20.025Z,675.90
2018-09-09T10:30:20.071Z,672.70
2018-09-09T10:31:20.109Z,686.70
2018-09-09T10:32:20.402Z,675.40
2018-09-09T10:33:20.217Z,681.20
2018-09-09T10:34:20.250Z,696.10
2018-09-09T10:35:20.289Z,723.20
2018-09-09T10:36:20.343Z,738.10
2018-09-09T10:37:20.356Z,744.30
2018-09-09T10:38:20.655Z,708.20
2018-09-09T10:39:20.458Z,718.20
2018-09-09T10:40:20.486Z,746.70
2018-09-09T10:41:20.519Z,696.70
2018-09-09T10:42:20.591Z,720.10
2018-09-09T10:43:20.634Z,747.10
2018-09-09T10:44:20.676Z,731.70
2018-09-09T10:45:20.732Z,757.60
2018-09-09T10:46:20.901Z,785.00
2018-09-09T10:47:20.792Z,827.00
2018-09-09T10:48:21.131Z,751.90
2018-09-09T10:49:20.873Z,731.10
2018-09-09T10:50:20.938Z,761.30
2018-09-09T10:51:20.989Z,760.10
2018-09-09T10:52:21.041Z,764.20
2018-09-09T10:53:21.055Z,924.40
2018-09-09T10:54:21.337Z,816.10
2018-09-09T10:55:21.179Z,832.10
2018-09-09T10:56:21.182Z,763.40
2018-09-09T10:57:21.248Z,802.60
2018-09-09T10:58:21.264Z,781.80
2018-09-09T10:59:21.314Z,780.30
2018-09-09T11:00:21.357Z,817.80
2018-09-09T11:01:21.410Z,826.30
2018-09-09T11:02:21.452Z,778.20
2018-09-09T11:03:21.543Z,812.20
2018-09-09T11:04:21.517Z,812.80
2018-09-09T11:05:21.873Z,833.90
2018-09-09T11:06:21.634Z,808.00
2018-09-09T11:07:21.701Z,790.80
2018-09-09T11:08:21.749Z,777.10
2018-09-09T11:09:21.745Z,795.00
2018-09-09T11:10:21.800Z,798.00
2018-09-09T11:11:22.085Z,725.40
2018-09-09T11:12:21.890Z,739.20
2018-09-09T11:13:21.928Z,713.80
2018-09-09T11:14:21.975Z,670.00
2018-09-09T11:15:22.009Z,630.60
2018-09-09T11:16:22.058Z,850.20
2018-09-09T11:17:22.105Z,668.50
2018-09-09T11:18:22.414Z,658.30
2018-09-09T11:19:22.209Z,656.00
2018-09-09T11:20:22.256Z,669.90
2018-09-09T11:21:22.276Z,653.00
2018-09-09T11:22:22.354Z,645.10
2018-09-09T11:23:22.349Z,660.10
2018-09-09T11:24:22.656Z,626.30
2018-09-09T11:25:22.498Z,624.70
2018-09-09T11:26:22.512Z,626.60
2018-09-09T11:27:22.566Z,670.70
2018-09-09T11:28:22.601Z,645.00
2018-09-09T11:29:22.647Z,701.60
2018-09-09T11:30:22.692Z,629.00
2018-09-09T11:31:22.742Z,715.00
2018-09-09T11:32:22.805Z,688.30
2018-09-09T11:33:22.814Z,824.20
2018-09-09T11:34:22.908Z,732.80
2018-09-09T11:35:23.197Z,724.90
2018-09-09T11:36:23.018Z,721.70
2018-09-09T11:37:23.016Z,695.40
2018-09-09T11:38:23.047Z,716.60
2018-09-09T11:39:23.132Z,665.10
2018-09-09T11:40:23.131Z,760.20
2018-09-09T11:41:23.187Z,976.70
2018-09-09T11:42:23.497Z,686.50
2018-09-09T11:43:23.295Z,661.90
2018-09-09T11:44:23.286Z,629.00
2018-09-09T11:45:23.369Z,597.70
2018-09-09T11:46:23.391Z,599.60
2018-09-09T11:47:23.447Z,613.90
2018-09-09T11:48:23.483Z,618.60
2018-09-09T11:49:23.522Z,712.40
2018-09-09T11:50:23.565Z,616.60
2018-09-09T11:51:23.628Z,624.00
2018-09-09T11:52:23.677Z,667.50
2018-09-09T11:53:23.723Z,661.30
2018-09-09T11:54:24.008Z,699.60
2018-09-09T11:55:23.805Z,671.80
2018-09-09T11:56:23.821Z,656.00
2018-09-09T11:57:23.872Z,654.60
2018-09-09T11:58:23.920Z,683.00
2018-09-09T11:59:23.964Z,654.50
2018-09-09T12:00:24.016Z,705.80
2018-09-09T12:01:24.052Z,670.50
2018-09-09T12:02:24.130Z,663.60
2018-09-09T12:03:24.141Z,655.40
2018-09-09T12:04:24.206Z,639.60
2018-09-09T12:05:24.246Z,606.60
2018-09-09T12:06:24.290Z,602.30
2018-09-09T12:07:24.382Z,584.90
2018-09-09T12:08:24.369Z,549.30
2018-09-09T12:09:24.690Z,527.60
2018-09-09T12:10:24.484Z,557.50
2018-09-09T12:11:24.520Z,588.50
2018-09-09T12:12:24.577Z,559.60
2018-09-09T12:13:24.597Z,531.00
2018-09-09T12:14:24.659Z,503.10
2018-09-09T12:15:24.709Z,456.60
2018-09-09T12:16:25.012Z,398.20
2018-09-09T12:17:24.801Z,343.80
2018-09-09T12:18:24.827Z,261.70
2018-09-09T12:19:24.897Z,204.70
2018-09-09T12:20:24.915Z,221.20
2018-09-09T12:21:24.966Z,196.00
2018-09-09T12:22:25.035Z,222.60
2018-09-09T12:23:25.108Z,264.70
2018-09-09T12:24:25.200Z,153.80
2018-09-09T12:25:25.159Z,148.40
2018-09-09T12:26:25.224Z,147.40
2018-09-09T12:27:25.254Z,120.60
2018-09-09T12:28:25.313Z,127.40
2018-09-09T12:29:25.339Z,141.90